sensor_id;sensor_type;location;lat;lon;timestamp;P1;durP1;ratioP1;P2;durP2;ratioP2
42134;SDS011;28312;43.460;11.810;2024-02-21T00:01:07;7.05;;;4.40;;
42134;SDS011;28312;43.460;11.810;2024-02-21T00:05:11;5.22;;;3.67;;
42134;SDS011;28312;43.460;11.810;2024-02-21T00:09:15;5.03;;;3.38;;
42134;SDS011;28312;43.460;11.810;2024-02-21T00:13:19;6.70;;;4.50;;
42134;SDS011;28312;43.460;11.810;2024-02-21T00:17:23;5.25;;;3.05;;
42134;SDS011;28312;43.460;11.810;2024-02-21T00:21:29;9.95;;;5.32;;
42134;SDS011;28312;43.460;11.810;2024-02-21T00:25:32;7.88;;;3.50;;
42134;SDS011;28312;43.460;11.810;2024-02-21T00:29:37;5.70;;;3.08;;
42134;SDS011;28312;43.460;11.810;2024-02-21T00:33:41;5.05;;;3.35;;
42134;SDS011;28312;43.460;11.810;2024-02-21T00:37:44;5.15;;;2.80;;
42134;SDS011;28312;43.460;11.810;2024-02-21T00:41:48;4.53;;;3.00;;
42134;SDS011;28312;43.460;11.810;2024-02-21T00:45:52;4.07;;;2.90;;
42134;SDS011;28312;43.460;11.810;2024-02-21T00:49:56;4.18;;;2.38;;
42134;SDS011;28312;43.460;11.810;2024-02-21T00:54:00;4.82;;;2.30;;
42134;SDS011;28312;43.460;11.810;2024-02-21T00:58:04;5.30;;;2.85;;
42134;SDS011;28312;43.460;11.810;2024-02-21T01:02:08;3.72;;;2.45;;
42134;SDS011;28312;43.460;11.810;2024-02-21T01:06:12;6.00;;;3.08;;
42134;SDS011;28312;43.460;11.810;2024-02-21T01:10:16;6.10;;;2.90;;
42134;SDS011;28312;43.460;11.810;2024-02-21T01:14:20;3.67;;;2.10;;
42134;SDS011;28312;43.460;11.810;2024-02-21T01:18:24;3.95;;;2.50;;
42134;SDS011;28312;43.460;11.810;2024-02-21T01:22:28;6.88;;;3.40;;
42134;SDS011;28312;43.460;11.810;2024-02-21T01:26:32;5.82;;;3.78;;
42134;SDS011;28312;43.460;11.810;2024-02-21T01:30:36;6.07;;;3.33;;
42134;SDS011;28312;43.460;11.810;2024-02-21T01:34:40;4.53;;;2.63;;
42134;SDS011;28312;43.460;11.810;2024-02-21T01:38:45;3.50;;;2.50;;
42134;SDS011;28312;43.460;11.810;2024-02-21T01:42:48;7.75;;;3.30;;
42134;SDS011;28312;43.460;11.810;2024-02-21T01:46:52;6.70;;;4.03;;
42134;SDS011;28312;43.460;11.810;2024-02-21T01:50:56;3.92;;;2.42;;
42134;SDS011;28312;43.460;11.810;2024-02-21T01:55:00;5.15;;;3.40;;
42134;SDS011;28312;43.460;11.810;2024-02-21T01:59:04;6.03;;;3.38;;
42134;SDS011;28312;43.460;11.810;2024-02-21T02:03:11;5.57;;;3.88;;
42134;SDS011;28312;43.460;11.810;2024-02-21T02:07:21;6.30;;;2.95;;
42134;SDS011;28312;43.460;11.810;2024-02-21T02:11:26;5.60;;;3.10;;
42134;SDS011;28312;43.460;11.810;2024-02-21T02:15:39;4.63;;;2.92;;
42134;SDS011;28312;43.460;11.810;2024-02-21T02:19:43;5.07;;;2.72;;
42134;SDS011;28312;43.460;11.810;2024-02-21T02:23:47;4.30;;;2.47;;
42134;SDS011;28312;43.460;11.810;2024-02-21T02:27:51;3.85;;;2.58;;
42134;SDS011;28312;43.460;11.810;2024-02-21T02:31:55;4.10;;;2.75;;
42134;SDS011;28312;43.460;11.810;2024-02-21T02:35:59;5.18;;;2.75;;
42134;SDS011;28312;43.460;11.810;2024-02-21T02:40:03;3.67;;;2.67;;
42134;SDS011;28312;43.460;11.810;2024-02-21T02:44:06;5.57;;;4.03;;
42134;SDS011;28312;43.460;11.810;2024-02-21T02:48:10;4.13;;;2.50;;
42134;SDS011;28312;43.460;11.810;2024-02-21T02:52:14;4.65;;;2.60;;
42134;SDS011;28312;43.460;11.810;2024-02-21T02:56:18;4.30;;;2.67;;
42134;SDS011;28312;43.460;11.810;2024-02-21T03:00:21;3.78;;;2.30;;
42134;SDS011;28312;43.460;11.810;2024-02-21T03:04:25;6.30;;;3.33;;
42134;SDS011;28312;43.460;11.810;2024-02-21T03:08:29;4.32;;;2.65;;
42134;SDS011;28312;43.460;11.810;2024-02-21T03:12:33;5.63;;;2.38;;
42134;SDS011;28312;43.460;11.810;2024-02-21T03:16:37;4.55;;;2.53;;
42134;SDS011;28312;43.460;11.810;2024-02-21T03:20:42;4.97;;;3.33;;
42134;SDS011;28312;43.460;11.810;2024-02-21T03:24:45;3.08;;;1.98;;
42134;SDS011;28312;43.460;11.810;2024-02-21T03:28:49;5.43;;;3.03;;
42134;SDS011;28312;43.460;11.810;2024-02-21T03:32:53;5.88;;;2.83;;
42134;SDS011;28312;43.460;11.810;2024-02-21T03:36:56;4.82;;;3.10;;
42134;SDS011;28312;43.460;11.810;2024-02-21T03:41:01;3.83;;;2.40;;
42134;SDS011;28312;43.460;11.810;2024-02-21T03:45:05;4.10;;;2.65;;
42134;SDS011;28312;43.460;11.810;2024-02-21T03:49:09;3.75;;;2.50;;
42134;SDS011;28312;43.460;11.810;2024-02-21T03:53:13;6.70;;;3.28;;
42134;SDS011;28312;43.460;11.810;2024-02-21T03:57:18;4.85;;;2.72;;
42134;SDS011;28312;43.460;11.810;2024-02-21T04:01:21;4.75;;;2.83;;
42134;SDS011;28312;43.460;11.810;2024-02-21T04:05:25;3.88;;;2.20;;
42134;SDS011;28312;43.460;11.810;2024-02-21T04:09:29;3.75;;;2.00;;
42134;SDS011;28312;43.460;11.810;2024-02-21T04:13:33;7.68;;;2.88;;
42134;SDS011;28312;43.460;11.810;2024-02-21T04:17:36;2.85;;;2.30;;
42134;SDS011;28312;43.460;11.810;2024-02-21T04:21:40;5.32;;;2.55;;
42134;SDS011;28312;43.460;11.810;2024-02-21T04:25:44;4.88;;;3.15;;
42134;SDS011;28312;43.460;11.810;2024-02-21T04:29:48;6.45;;;2.55;;
42134;SDS011;28312;43.460;11.810;2024-02-21T04:33:52;3.97;;;2.10;;
42134;SDS011;28312;43.460;11.810;2024-02-21T04:37:56;4.70;;;2.50;;
42134;SDS011;28312;43.460;11.810;2024-02-21T04:41:59;5.75;;;3.22;;
42134;SDS011;28312;43.460;11.810;2024-02-21T04:46:04;5.07;;;2.78;;
42134;SDS011;28312;43.460;11.810;2024-02-21T04:50:08;4.38;;;2.75;;
42134;SDS011;28312;43.460;11.810;2024-02-21T04:54:12;3.65;;;2.47;;
42134;SDS011;28312;43.460;11.810;2024-02-21T04:58:15;6.93;;;3.10;;
42134;SDS011;28312;43.460;11.810;2024-02-21T05:02:20;4.03;;;2.45;;
42134;SDS011;28312;43.460;11.810;2024-02-21T05:06:27;6.40;;;2.50;;
42134;SDS011;28312;43.460;11.810;2024-02-21T05:10:30;6.53;;;2.72;;
42134;SDS011;28312;43.460;11.810;2024-02-21T05:14:34;5.93;;;2.40;;
42134;SDS011;28312;43.460;11.810;2024-02-21T05:18:38;4.43;;;2.45;;
42134;SDS011;28312;43.460;11.810;2024-02-21T05:22:42;3.05;;;1.90;;
42134;SDS011;28312;43.460;11.810;2024-02-21T05:26:46;3.17;;;1.80;;
42134;SDS011;28312;43.460;11.810;2024-02-21T05:30:49;2.92;;;1.73;;
42134;SDS011;28312;43.460;11.810;2024-02-21T05:34:53;3.45;;;2.03;;
42134;SDS011;28312;43.460;11.810;2024-02-21T05:38:57;4.20;;;2.10;;
42134;SDS011;28312;43.460;11.810;2024-02-21T05:43:01;3.55;;;1.80;;
42134;SDS011;28312;43.460;11.810;2024-02-21T05:47:05;3.20;;;1.85;;
42134;SDS011;28312;43.460;11.810;2024-02-21T05:51:13;5.88;;;2.28;;
42134;SDS011;28312;43.460;11.810;2024-02-21T05:55:17;3.88;;;2.08;;
42134;SDS011;28312;43.460;11.810;2024-02-21T05:59:20;4.65;;;2.40;;
42134;SDS011;28312;43.460;11.810;2024-02-21T06:03:24;2.85;;;1.70;;
42134;SDS011;28312;43.460;11.810;2024-02-21T06:07:28;4.60;;;2.47;;
42134;SDS011;28312;43.460;11.810;2024-02-21T06:11:33;3.05;;;1.90;;
42134;SDS011;28312;43.460;11.810;2024-02-21T06:15:40;3.38;;;2.35;;
42134;SDS011;28312;43.460;11.810;2024-02-21T06:19:44;3.55;;;1.55;;
42134;SDS011;28312;43.460;11.810;2024-02-21T06:23:48;3.88;;;1.80;;
42134;SDS011;28312;43.460;11.810;2024-02-21T06:27:52;2.67;;;1.95;;
42134;SDS011;28312;43.460;11.810;2024-02-21T06:31:55;2.78;;;1.90;;
42134;SDS011;28312;43.460;11.810;2024-02-21T06:35:59;2.90;;;1.73;;
42134;SDS011;28312;43.460;11.810;2024-02-21T06:40:03;3.35;;;2.10;;
42134;SDS011;28312;43.460;11.810;2024-02-21T06:44:07;5.18;;;2.95;;
42134;SDS011;28312;43.460;11.810;2024-02-21T06:48:11;4.22;;;2.58;;
42134;SDS011;28312;43.460;11.810;2024-02-21T06:52:17;5.35;;;2.85;;
42134;SDS011;28312;43.460;11.810;2024-02-21T07:00:29;3.33;;;1.75;;
42134;SDS011;28312;43.460;11.810;2024-02-21T07:04:33;2.90;;;1.77;;
42134;SDS011;28312;43.460;11.810;2024-02-21T07:08:38;3.30;;;2.20;;
42134;SDS011;28312;43.460;11.810;2024-02-21T07:12:41;2.60;;;1.77;;
42134;SDS011;28312;43.460;11.810;2024-02-21T07:16:47;2.95;;;1.88;;
42134;SDS011;28312;43.460;11.810;2024-02-21T07:20:51;2.28;;;1.33;;
42134;SDS011;28312;43.460;11.810;2024-02-21T07:24:55;4.25;;;2.00;;
42134;SDS011;28312;43.460;11.810;2024-02-21T07:28:58;2.30;;;1.63;;
42134;SDS011;28312;43.460;11.810;2024-02-21T07:33:02;2.80;;;1.65;;
42134;SDS011;28312;43.460;11.810;2024-02-21T07:37:06;3.70;;;2.22;;
42134;SDS011;28312;43.460;11.810;2024-02-21T07:41:09;7.03;;;5.47;;
42134;SDS011;28312;43.460;11.810;2024-02-21T07:45:13;2.55;;;1.70;;
42134;SDS011;28312;43.460;11.810;2024-02-21T07:49:16;2.95;;;1.63;;
42134;SDS011;28312;43.460;11.810;2024-02-21T07:53:20;2.75;;;1.80;;
42134;SDS011;28312;43.460;11.810;2024-02-21T07:57:24;4.43;;;1.95;;
42134;SDS011;28312;43.460;11.810;2024-02-21T08:01:28;4.00;;;2.50;;
42134;SDS011;28312;43.460;11.810;2024-02-21T08:05:33;4.38;;;2.63;;
42134;SDS011;28312;43.460;11.810;2024-02-21T08:09:39;4.97;;;2.35;;
42134;SDS011;28312;43.460;11.810;2024-02-21T08:13:43;3.92;;;2.47;;
42134;SDS011;28312;43.460;11.810;2024-02-21T08:17:46;3.13;;;1.98;;
42134;SDS011;28312;43.460;11.810;2024-02-21T08:21:50;3.28;;;2.17;;
42134;SDS011;28312;43.460;11.810;2024-02-21T08:25:54;3.00;;;2.08;;
42134;SDS011;28312;43.460;11.810;2024-02-21T08:29:59;3.40;;;1.80;;
42134;SDS011;28312;43.460;11.810;2024-02-21T08:34:02;3.22;;;2.28;;
42134;SDS011;28312;43.460;11.810;2024-02-21T08:38:06;4.13;;;2.13;;
42134;SDS011;28312;43.460;11.810;2024-02-21T08:42:10;4.20;;;2.55;;
42134;SDS011;28312;43.460;11.810;2024-02-21T08:46:14;2.88;;;2.17;;
42134;SDS011;28312;43.460;11.810;2024-02-21T08:50:18;2.85;;;1.95;;
42134;SDS011;28312;43.460;11.810;2024-02-21T08:54:31;4.05;;;2.20;;
42134;SDS011;28312;43.460;11.810;2024-02-21T08:58:36;3.77;;;2.27;;
42134;SDS011;28312;43.460;11.810;2024-02-21T09:02:40;4.15;;;2.33;;
42134;SDS011;28312;43.460;11.810;2024-02-21T09:06:47;3.83;;;2.53;;
42134;SDS011;28312;43.460;11.810;2024-02-21T09:10:51;4.32;;;2.70;;
42134;SDS011;28312;43.460;11.810;2024-02-21T09:14:56;4.18;;;2.45;;
42134;SDS011;28312;43.460;11.810;2024-02-21T09:18:59;4.28;;;2.30;;
42134;SDS011;28312;43.460;11.810;2024-02-21T09:23:04;3.88;;;2.28;;
42134;SDS011;28312;43.460;11.810;2024-02-21T09:27:08;4.32;;;2.28;;
42134;SDS011;28312;43.460;11.810;2024-02-21T09:31:12;2.53;;;1.45;;
42134;SDS011;28312;43.460;11.810;2024-02-21T09:35:16;2.40;;;1.50;;
42134;SDS011;28312;43.460;11.810;2024-02-21T09:39:19;2.95;;;1.90;;
42134;SDS011;28312;43.460;11.810;2024-02-21T09:43:23;4.07;;;2.55;;
42134;SDS011;28312;43.460;11.810;2024-02-21T09:47:40;3.50;;;2.17;;
42134;SDS011;28312;43.460;11.810;2024-02-21T09:52:07;2.13;;;1.33;;
42134;SDS011;28312;43.460;11.810;2024-02-21T09:56:11;2.92;;;1.50;;
42134;SDS011;28312;43.460;11.810;2024-02-21T10:00:17;2.50;;;1.27;;
42134;SDS011;28312;43.460;11.810;2024-02-21T10:04:24;3.17;;;1.40;;
42134;SDS011;28312;43.460;11.810;2024-02-21T10:08:28;2.40;;;1.35;;
42134;SDS011;28312;43.460;11.810;2024-02-21T10:12:32;2.80;;;1.10;;
42134;SDS011;28312;43.460;11.810;2024-02-21T10:16:35;1.83;;;1.13;;
42134;SDS011;28312;43.460;11.810;2024-02-21T10:20:40;1.73;;;0.95;;
42134;SDS011;28312;43.460;11.810;2024-02-21T10:24:44;2.70;;;1.30;;
42134;SDS011;28312;43.460;11.810;2024-02-21T10:28:47;2.22;;;1.10;;
42134;SDS011;28312;43.460;11.810;2024-02-21T10:32:54;3.08;;;1.13;;
42134;SDS011;28312;43.460;11.810;2024-02-21T10:37:00;4.07;;;3.03;;
42134;SDS011;28312;43.460;11.810;2024-02-21T10:41:04;4.55;;;2.70;;
42134;SDS011;28312;43.460;11.810;2024-02-21T10:45:09;6.03;;;4.38;;
42134;SDS011;28312;43.460;11.810;2024-02-21T10:49:22;6.10;;;4.57;;
42134;SDS011;28312;43.460;11.810;2024-02-21T10:53:35;3.90;;;3.00;;
42134;SDS011;28312;43.460;11.810;2024-02-21T10:57:55;3.80;;;2.10;;
42134;SDS011;28312;43.460;11.810;2024-02-21T11:02:00;1.92;;;1.25;;
42134;SDS011;28312;43.460;11.810;2024-02-21T11:06:04;2.10;;;1.00;;
42134;SDS011;28312;43.460;11.810;2024-02-21T11:10:20;3.95;;;1.30;;
42134;SDS011;28312;43.460;11.810;2024-02-21T11:14:26;1.90;;;1.08;;
42134;SDS011;28312;43.460;11.810;2024-02-21T11:18:30;2.10;;;1.20;;
42134;SDS011;28312;43.460;11.810;2024-02-21T11:22:40;2.80;;;1.30;;
42134;SDS011;28312;43.460;11.810;2024-02-21T11:26:47;1.63;;;0.82;;
42134;SDS011;28312;43.460;11.810;2024-02-21T11:30:52;3.53;;;2.30;;
42134;SDS011;28312;43.460;11.810;2024-02-21T11:35:01;1.98;;;1.10;;
42134;SDS011;28312;43.460;11.810;2024-02-21T11:39:10;2.35;;;1.10;;
42134;SDS011;28312;43.460;11.810;2024-02-21T11:47:46;1.60;;;0.93;;
42134;SDS011;28312;43.460;11.810;2024-02-21T11:52:02;1.75;;;0.93;;
42134;SDS011;28312;43.460;11.810;2024-02-21T12:00:17;2.28;;;1.20;;
42134;SDS011;28312;43.460;11.810;2024-02-21T12:04:24;1.90;;;1.05;;
42134;SDS011;28312;43.460;11.810;2024-02-21T12:08:49;1.77;;;0.80;;
42134;SDS011;28312;43.460;11.810;2024-02-21T12:12:52;1.20;;;0.65;;
42134;SDS011;28312;43.460;11.810;2024-02-21T12:17:02;1.83;;;1.10;;
42134;SDS011;28312;43.460;11.810;2024-02-21T12:21:10;1.33;;;0.75;;
42134;SDS011;28312;43.460;11.810;2024-02-21T12:25:17;1.88;;;0.82;;
42134;SDS011;28312;43.460;11.810;2024-02-21T12:29:22;1.42;;;0.80;;
42134;SDS011;28312;43.460;11.810;2024-02-21T12:33:29;0.77;;;0.35;;
42134;SDS011;28312;43.460;11.810;2024-02-21T12:37:34;1.15;;;0.45;;
42134;SDS011;28312;43.460;11.810;2024-02-21T12:41:42;1.35;;;0.75;;
42134;SDS011;28312;43.460;11.810;2024-02-21T12:45:47;0.90;;;0.50;;
42134;SDS011;28312;43.460;11.810;2024-02-21T12:49:51;0.93;;;0.38;;
42134;SDS011;28312;43.460;11.810;2024-02-21T12:53:56;0.82;;;0.50;;
42134;SDS011;28312;43.460;11.810;2024-02-21T12:58:02;0.50;;;0.30;;
42134;SDS011;28312;43.460;11.810;2024-02-21T13:02:09;0.95;;;0.40;;
42134;SDS011;28312;43.460;11.810;2024-02-21T13:06:14;0.43;;;0.28;;
42134;SDS011;28312;43.460;11.810;2024-02-21T13:10:18;0.93;;;0.50;;
42134;SDS011;28312;43.460;11.810;2024-02-21T13:14:22;0.93;;;0.45;;
42134;SDS011;28312;43.460;11.810;2024-02-21T13:18:26;0.52;;;0.30;;
42134;SDS011;28312;43.460;11.810;2024-02-21T13:22:30;1.38;;;0.63;;
42134;SDS011;28312;43.460;11.810;2024-02-21T13:26:34;1.17;;;0.63;;
42134;SDS011;28312;43.460;11.810;2024-02-21T13:30:38;1.27;;;0.50;;
42134;SDS011;28312;43.460;11.810;2024-02-21T13:34:42;1.80;;;0.60;;
42134;SDS011;28312;43.460;11.810;2024-02-21T13:38:45;1.05;;;0.70;;
42134;SDS011;28312;43.460;11.810;2024-02-21T13:42:50;1.20;;;0.70;;
42134;SDS011;28312;43.460;11.810;2024-02-21T13:46:54;1.42;;;0.65;;
42134;SDS011;28312;43.460;11.810;2024-02-21T13:50:57;1.00;;;0.60;;
42134;SDS011;28312;43.460;11.810;2024-02-21T13:55:01;1.50;;;0.70;;
42134;SDS011;28312;43.460;11.810;2024-02-21T13:59:05;1.77;;;0.80;;
42134;SDS011;28312;43.460;11.810;2024-02-21T14:03:10;1.23;;;0.73;;
42134;SDS011;28312;43.460;11.810;2024-02-21T14:07:13;1.60;;;0.88;;
42134;SDS011;28312;43.460;11.810;2024-02-21T14:11:17;1.70;;;0.88;;
42134;SDS011;28312;43.460;11.810;2024-02-21T14:15:21;1.40;;;0.65;;
42134;SDS011;28312;43.460;11.810;2024-02-21T14:19:24;0.85;;;0.50;;
42134;SDS011;28312;43.460;11.810;2024-02-21T14:23:28;1.13;;;0.63;;
42134;SDS011;28312;43.460;11.810;2024-02-21T14:27:32;1.70;;;1.00;;
42134;SDS011;28312;43.460;11.810;2024-02-21T14:31:35;1.63;;;0.98;;
42134;SDS011;28312;43.460;11.810;2024-02-21T14:35:40;3.63;;;1.17;;
42134;SDS011;28312;43.460;11.810;2024-02-21T14:39:44;1.77;;;0.90;;
42134;SDS011;28312;43.460;11.810;2024-02-21T14:43:48;1.40;;;0.80;;
42134;SDS011;28312;43.460;11.810;2024-02-21T14:47:51;0.75;;;0.63;;
42134;SDS011;28312;43.460;11.810;2024-02-21T14:51:55;1.90;;;0.80;;
42134;SDS011;28312;43.460;11.810;2024-02-21T14:55:59;2.28;;;1.00;;
42134;SDS011;28312;43.460;11.810;2024-02-21T15:00:05;1.83;;;0.88;;
42134;SDS011;28312;43.460;11.810;2024-02-21T15:04:11;1.83;;;0.80;;
42134;SDS011;28312;43.460;11.810;2024-02-21T15:08:16;1.27;;;0.75;;
42134;SDS011;28312;43.460;11.810;2024-02-21T15:12:21;2.53;;;0.98;;
42134;SDS011;28312;43.460;11.810;2024-02-21T15:16:26;1.60;;;1.00;;
42134;SDS011;28312;43.460;11.810;2024-02-21T15:20:29;1.80;;;1.02;;
42134;SDS011;28312;43.460;11.810;2024-02-21T15:24:33;2.60;;;1.58;;
42134;SDS011;28312;43.460;11.810;2024-02-21T15:28:37;2.30;;;1.25;;
42134;SDS011;28312;43.460;11.810;2024-02-21T15:32:40;2.20;;;1.08;;
42134;SDS011;28312;43.460;11.810;2024-02-21T15:36:47;2.80;;;1.15;;
42134;SDS011;28312;43.460;11.810;2024-02-21T15:40:52;2.40;;;1.20;;
42134;SDS011;28312;43.460;11.810;2024-02-21T15:44:55;3.17;;;1.73;;
42134;SDS011;28312;43.460;11.810;2024-02-21T15:48:59;5.57;;;3.08;;
42134;SDS011;28312;43.460;11.810;2024-02-21T15:53:03;6.05;;;3.75;;
42134;SDS011;28312;43.460;11.810;2024-02-21T15:57:07;7.95;;;5.22;;
42134;SDS011;28312;43.460;11.810;2024-02-21T16:01:11;16.02;;;8.68;;
42134;SDS011;28312;43.460;11.810;2024-02-21T16:05:17;17.95;;;10.95;;
42134;SDS011;28312;43.460;11.810;2024-02-21T16:09:21;24.52;;;14.48;;
42134;SDS011;28312;43.460;11.810;2024-02-21T16:13:25;14.43;;;6.43;;
42134;SDS011;28312;43.460;11.810;2024-02-21T16:17:29;7.53;;;3.65;;
42134;SDS011;28312;43.460;11.810;2024-02-21T16:21:34;7.57;;;4.05;;
42134;SDS011;28312;43.460;11.810;2024-02-21T16:25:40;5.65;;;3.35;;
42134;SDS011;28312;43.460;11.810;2024-02-21T16:29:44;4.28;;;2.28;;
42134;SDS011;28312;43.460;11.810;2024-02-21T16:33:48;3.92;;;2.03;;
42134;SDS011;28312;43.460;11.810;2024-02-21T16:37:52;4.13;;;1.55;;
42134;SDS011;28312;43.460;11.810;2024-02-21T16:41:56;3.15;;;1.30;;
42134;SDS011;28312;43.460;11.810;2024-02-21T16:46:03;2.85;;;1.48;;
42134;SDS011;28312;43.460;11.810;2024-02-21T16:50:07;2.67;;;1.30;;
42134;SDS011;28312;43.460;11.810;2024-02-21T16:54:11;3.17;;;1.70;;
42134;SDS011;28312;43.460;11.810;2024-02-21T16:58:15;2.55;;;1.33;;
42134;SDS011;28312;43.460;11.810;2024-02-21T17:02:18;1.83;;;1.15;;
42134;SDS011;28312;43.460;11.810;2024-02-21T17:06:22;4.32;;;1.25;;
42134;SDS011;28312;43.460;11.810;2024-02-21T17:10:26;3.40;;;1.52;;
42134;SDS011;28312;43.460;11.810;2024-02-21T17:14:30;1.98;;;1.15;;
42134;SDS011;28312;43.460;11.810;2024-02-21T17:18:33;2.47;;;1.48;;
42134;SDS011;28312;43.460;11.810;2024-02-21T17:22:37;4.13;;;2.17;;
42134;SDS011;28312;43.460;11.810;2024-02-21T17:26:41;5.82;;;3.22;;
42134;SDS011;28312;43.460;11.810;2024-02-21T17:30:44;5.40;;;3.00;;
42134;SDS011;28312;43.460;11.810;2024-02-21T17:34:48;4.88;;;2.95;;
42134;SDS011;28312;43.460;11.810;2024-02-21T17:38:51;3.65;;;2.28;;
42134;SDS011;28312;43.460;11.810;2024-02-21T17:42:55;7.25;;;4.13;;
42134;SDS011;28312;43.460;11.810;2024-02-21T17:46:59;8.95;;;5.28;;
42134;SDS011;28312;43.460;11.810;2024-02-21T17:51:02;10.35;;;4.97;;
42134;SDS011;28312;43.460;11.810;2024-02-21T17:55:06;10.15;;;4.60;;
42134;SDS011;28312;43.460;11.810;2024-02-21T17:59:10;7.72;;;4.25;;
42134;SDS011;28312;43.460;11.810;2024-02-21T18:03:15;8.35;;;4.70;;
42134;SDS011;28312;43.460;11.810;2024-02-21T18:07:19;7.22;;;4.60;;
42134;SDS011;28312;43.460;11.810;2024-02-21T18:11:26;6.03;;;3.67;;
42134;SDS011;28312;43.460;11.810;2024-02-21T18:15:30;9.30;;;5.38;;
42134;SDS011;28312;43.460;11.810;2024-02-21T18:19:34;7.47;;;4.00;;
42134;SDS011;28312;43.460;11.810;2024-02-21T18:23:38;8.35;;;4.03;;
42134;SDS011;28312;43.460;11.810;2024-02-21T18:27:42;4.28;;;2.58;;
42134;SDS011;28312;43.460;11.810;2024-02-21T18:31:46;4.53;;;2.80;;
42134;SDS011;28312;43.460;11.810;2024-02-21T18:35:51;5.80;;;3.45;;
42134;SDS011;28312;43.460;11.810;2024-02-21T18:39:54;7.85;;;3.40;;
42134;SDS011;28312;43.460;11.810;2024-02-21T18:43:58;5.15;;;2.97;;
42134;SDS011;28312;43.460;11.810;2024-02-21T18:48:03;6.07;;;3.40;;
42134;SDS011;28312;43.460;11.810;2024-02-21T18:52:07;5.28;;;2.80;;
42134;SDS011;28312;43.460;11.810;2024-02-21T18:56:11;5.82;;;3.00;;
42134;SDS011;28312;43.460;11.810;2024-02-21T19:00:17;8.50;;;4.33;;
42134;SDS011;28312;43.460;11.810;2024-02-21T19:04:25;6.93;;;4.25;;
42134;SDS011;28312;43.460;11.810;2024-02-21T19:08:29;10.20;;;4.18;;
42134;SDS011;28312;43.460;11.810;2024-02-21T19:12:33;14.10;;;8.43;;
42134;SDS011;28312;43.460;11.810;2024-02-21T19:16:36;8.93;;;5.75;;
42134;SDS011;28312;43.460;11.810;2024-02-21T19:20:40;9.18;;;5.32;;
42134;SDS011;28312;43.460;11.810;2024-02-21T19:24:44;10.55;;;6.10;;
42134;SDS011;28312;43.460;11.810;2024-02-21T19:28:48;17.20;;;9.15;;
42134;SDS011;28312;43.460;11.810;2024-02-21T19:32:52;18.95;;;9.90;;
42134;SDS011;28312;43.460;11.810;2024-02-21T19:36:56;34.47;;;21.25;;
42134;SDS011;28312;43.460;11.810;2024-02-21T19:41:00;36.28;;;20.65;;
42134;SDS011;28312;43.460;11.810;2024-02-21T19:45:04;20.92;;;12.55;;
42134;SDS011;28312;43.460;11.810;2024-02-21T19:49:10;17.52;;;11.88;;
42134;SDS011;28312;43.460;11.810;2024-02-21T19:53:15;19.42;;;11.55;;
42134;SDS011;28312;43.460;11.810;2024-02-21T19:57:22;15.43;;;9.18;;
42134;SDS011;28312;43.460;11.810;2024-02-21T20:01:27;13.32;;;6.43;;
42134;SDS011;28312;43.460;11.810;2024-02-21T20:05:31;9.45;;;7.20;;
42134;SDS011;28312;43.460;11.810;2024-02-21T20:09:40;13.55;;;7.47;;
42134;SDS011;28312;43.460;11.810;2024-02-21T20:13:45;8.13;;;6.80;;
42134;SDS011;28312;43.460;11.810;2024-02-21T20:17:48;11.05;;;6.60;;
42134;SDS011;28312;43.460;11.810;2024-02-21T20:21:52;14.80;;;9.70;;
42134;SDS011;28312;43.460;11.810;2024-02-21T20:25:55;11.43;;;6.22;;
42134;SDS011;28312;43.460;11.810;2024-02-21T20:29:59;11.32;;;6.38;;
42134;SDS011;28312;43.460;11.810;2024-02-21T20:34:04;13.82;;;8.52;;
42134;SDS011;28312;43.460;11.810;2024-02-21T20:38:08;24.70;;;12.10;;
42134;SDS011;28312;43.460;11.810;2024-02-21T20:42:14;13.45;;;8.35;;
42134;SDS011;28312;43.460;11.810;2024-02-21T20:46:21;32.78;;;19.92;;
42134;SDS011;28312;43.460;11.810;2024-02-21T20:50:25;120.28;;;77.32;;
42134;SDS011;28312;43.460;11.810;2024-02-21T20:54:31;50.42;;;31.15;;
42134;SDS011;28312;43.460;11.810;2024-02-21T20:58:36;17.55;;;9.77;;
42134;SDS011;28312;43.460;11.810;2024-02-21T21:02:41;12.32;;;9.07;;
42134;SDS011;28312;43.460;11.810;2024-02-21T21:06:46;12.90;;;6.65;;
42134;SDS011;28312;43.460;11.810;2024-02-21T21:10:50;23.98;;;13.63;;
42134;SDS011;28312;43.460;11.810;2024-02-21T21:14:55;19.83;;;9.93;;
42134;SDS011;28312;43.460;11.810;2024-02-21T21:18:58;21.23;;;12.23;;
42134;SDS011;28312;43.460;11.810;2024-02-21T21:23:03;24.40;;;14.98;;
42134;SDS011;28312;43.460;11.810;2024-02-21T21:27:08;11.55;;;7.32;;
42134;SDS011;28312;43.460;11.810;2024-02-21T21:31:17;18.60;;;12.93;;
42134;SDS011;28312;43.460;11.810;2024-02-21T21:35:23;10.97;;;6.23;;
42134;SDS011;28312;43.460;11.810;2024-02-21T21:39:29;12.70;;;6.38;;
42134;SDS011;28312;43.460;11.810;2024-02-21T21:43:32;11.35;;;6.75;;
42134;SDS011;28312;43.460;11.810;2024-02-21T21:47:36;16.17;;;6.40;;
42134;SDS011;28312;43.460;11.810;2024-02-21T21:51:39;9.02;;;5.78;;
42134;SDS011;28312;43.460;11.810;2024-02-21T21:55:43;11.30;;;8.55;;
42134;SDS011;28312;43.460;11.810;2024-02-21T21:59:47;13.38;;;8.40;;
42134;SDS011;28312;43.460;11.810;2024-02-21T22:03:50;11.10;;;7.57;;
42134;SDS011;28312;43.460;11.810;2024-02-21T22:07:54;11.18;;;8.23;;
42134;SDS011;28312;43.460;11.810;2024-02-21T22:11:58;10.70;;;8.35;;
42134;SDS011;28312;43.460;11.810;2024-02-21T22:16:04;10.82;;;7.55;;
42134;SDS011;28312;43.460;11.810;2024-02-21T22:20:08;9.50;;;6.72;;
42134;SDS011;28312;43.460;11.810;2024-02-21T22:24:13;16.77;;;8.75;;
42134;SDS011;28312;43.460;11.810;2024-02-21T22:28:18;8.05;;;5.90;;
42134;SDS011;28312;43.460;11.810;2024-02-21T22:32:22;10.25;;;7.40;;
42134;SDS011;28312;43.460;11.810;2024-02-21T22:36:27;11.15;;;7.18;;
42134;SDS011;28312;43.460;11.810;2024-02-21T22:40:32;8.23;;;5.28;;
42134;SDS011;28312;43.460;11.810;2024-02-21T22:44:39;12.88;;;8.25;;
42134;SDS011;28312;43.460;11.810;2024-02-21T22:48:45;8.68;;;5.57;;
42134;SDS011;28312;43.460;11.810;2024-02-21T22:52:51;7.82;;;5.80;;
42134;SDS011;28312;43.460;11.810;2024-02-21T22:56:54;10.63;;;6.32;;
42134;SDS011;28312;43.460;11.810;2024-02-21T23:00:58;7.20;;;5.32;;
42134;SDS011;28312;43.460;11.810;2024-02-21T23:05:02;7.20;;;5.78;;
42134;SDS011;28312;43.460;11.810;2024-02-21T23:09:08;15.03;;;7.23;;
42134;SDS011;28312;43.460;11.810;2024-02-21T23:13:12;9.55;;;6.57;;
42134;SDS011;28312;43.460;11.810;2024-02-21T23:17:16;10.20;;;7.20;;
42134;SDS011;28312;43.460;11.810;2024-02-21T23:21:19;5.78;;;4.38;;
42134;SDS011;28312;43.460;11.810;2024-02-21T23:25:23;8.70;;;7.15;;
42134;SDS011;28312;43.460;11.810;2024-02-21T23:29:27;10.57;;;6.28;;
42134;SDS011;28312;43.460;11.810;2024-02-21T23:33:32;11.65;;;7.97;;
42134;SDS011;28312;43.460;11.810;2024-02-21T23:37:37;8.45;;;6.45;;
42134;SDS011;28312;43.460;11.810;2024-02-21T23:41:41;10.75;;;7.47;;
42134;SDS011;28312;43.460;11.810;2024-02-21T23:45:45;7.82;;;5.70;;
42134;SDS011;28312;43.460;11.810;2024-02-21T23:49:49;7.30;;;4.80;;
42134;SDS011;28312;43.460;11.810;2024-02-21T23:53:52;7.07;;;4.63;;
42134;SDS011;28312;43.460;11.810;2024-02-21T23:57:58;10.93;;;6.40;;
